Time;durP1;ratioP1;P1;durP2;ratioP2;P2;SDS_P1;SDS_P2;PMS_P1;PMS_P2;Temp;Humidity;BMP_temperature;BMP_pressure;BME280_temperature;BME280_humidity;BME280_pressure;Samples;Min_cycle;Max_cycle;Signal;HPM_P1;HPM_P2
2023/12/18 00:01:13;;;;;;;16.20;6.78;;;;;;;;;;6362449;22;19998;-74
2023/12/18 00:03:38;;;;;;;15.38;6.03;;;;;;;;;;6389312;22;20021;-74
2023/12/18 00:06:04;;;;;;;18.90;6.93;;;;;;;;;;6389949;22;20025;-74
2023/12/18 00:08:29;;;;;;;13.05;6.68;;;;;;;;;;6390464;22;20338;-74
2023/12/18 00:10:55;;;;;;;18.83;7.50;;;;;;;;;;6363964;22;20695;-74
2023/12/18 00:13:20;;;;;;;23.25;8.98;;;;;;;;;;6402949;22;20026;-74
2023/12/18 00:15:45;;;;;;;29.38;10.88;;;;;;;;;;6410872;22;20091;-74
2023/12/18 00:18:11;;;;;;;23.90;9.18;;;;;;;;;;6401770;22;20006;-74
2023/12/18 00:20:36;;;;;;;21.30;8.30;;;;;;;;;;6392859;22;20016;-74
2023/12/18 00:23:02;;;;;;;24.48;9.27;;;;;;;;;;6390005;22;20008;-75
2023/12/18 00:25:28;;;;;;;20.10;7.85;;;;;;;;;;6389919;22;20026;-74
2023/12/18 00:27:53;;;;;;;23.88;8.82;;;;;;;;;;6389112;22;20006;-74
2023/12/18 00:30:19;;;;;;;24.60;8.13;;;;;;;;;;6389520;22;20013;-74
2023/12/18 00:32:44;;;;;;;31.75;10.60;;;;;;;;;;6389598;22;20010;-74
2023/12/18 00:35:09;;;;;;;26.90;10.70;;;;;;;;;;6361328;22;20021;-74
2023/12/18 00:37:35;;;;;;;29.77;11.80;;;;;;;;;;6361612;22;20012;-74
2023/12/18 00:40:00;;;;;;;49.22;14.90;;;;;;;;;;6389331;22;20048;-74
2023/12/18 00:42:25;;;;;;;40.42;13.30;;;;;;;;;;6389171;22;20010;-74
2023/12/18 00:44:51;;;;;;;33.17;11.48;;;;;;;;;;6389606;22;20525;-74
2023/12/18 00:47:18;;;;;;;26.90;10.68;;;;;;;;;;6361140;22;20033;-74
2023/12/18 00:49:43;;;;;;;18.25;8.30;;;;;;;;;;6390154;22;20001;-74
2023/12/18 00:52:09;;;;;;;18.38;8.25;;;;;;;;;;6389068;22;20002;-74
2023/12/18 00:54:34;;;;;;;15.73;7.45;;;;;;;;;;6389608;22;20025;-74
2023/12/18 00:56:59;;;;;;;19.60;7.85;;;;;;;;;;6361056;22;20022;-74
2023/12/18 00:59:25;;;;;;;21.20;8.65;;;;;;;;;;6389038;22;20038;-74
2023/12/18 01:01:50;;;;;;;21.95;9.60;;;;;;;;;;6388684;22;19998;-75
2023/12/18 01:04:15;;;;;;;22.27;9.48;;;;;;;;;;6361944;22;19994;-74
2023/12/18 01:06:41;;;;;;;23.50;9.73;;;;;;;;;;6386839;22;20462;-74
2023/12/18 01:09:08;;;;;;;22.15;9.23;;;;;;;;;;6389428;22;20014;-75
2023/12/18 01:11:34;;;;;;;17.50;7.75;;;;;;;;;;6388642;22;20009;-74
2023/12/18 01:13:59;;;;;;;18.65;6.72;;;;;;;;;;6389176;22;20028;-74
2023/12/18 01:16:26;;;;;;;17.85;7.55;;;;;;;;;;6389616;22;20029;-74
2023/12/18 01:18:51;;;;;;;19.60;7.35;;;;;;;;;;6389415;22;20021;-74
2023/12/18 01:21:17;;;;;;;17.58;7.95;;;;;;;;;;6360295;22;20014;-74
2023/12/18 01:23:42;;;;;;;24.88;8.98;;;;;;;;;;6360817;22;20010;-74
2023/12/18 01:26:07;;;;;;;14.35;7.13;;;;;;;;;;6389453;22;20013;-74
2023/12/18 01:28:33;;;;;;;16.58;7.78;;;;;;;;;;6390445;22;20058;-74
2023/12/18 01:30:58;;;;;;;22.42;8.18;;;;;;;;;;6391661;22;20451;-74
2023/12/18 01:33:23;;;;;;;18.88;7.03;;;;;;;;;;6373130;22;20330;-75
2023/12/18 01:35:49;;;;;;;24.38;7.95;;;;;;;;;;6404539;22;20411;-74
2023/12/18 01:38:14;;;;;;;21.25;8.45;;;;;;;;;;6362357;22;20005;-74
2023/12/18 01:40:39;;;;;;;17.65;7.60;;;;;;;;;;6389545;22;20036;-75
2023/12/18 01:43:24;;;;;;;18.65;8.65;;;;;;;;;;6388674;22;20014;-74
2023/12/18 01:45:57;;;;;;;18.65;7.28;;;;;;;;;;6388870;22;20583;-74
2023/12/18 01:48:24;;;;;;;18.63;7.72;;;;;;;;;;6389025;22;20017;-74
2023/12/18 01:50:50;;;;;;;21.10;9.23;;;;;;;;;;6386442;22;20009;-74
2023/12/18 01:53:16;;;;;;;18.83;8.20;;;;;;;;;;6388486;22;20672;-74
2023/12/18 01:55:42;;;;;;;23.83;8.68;;;;;;;;;;6360638;22;20044;-74
2023/12/18 01:58:07;;;;;;;20.45;8.00;;;;;;;;;;6389114;22;19998;-74
2023/12/18 02:00:33;;;;;;;22.40;8.43;;;;;;;;;;6360372;22;20354;-74
2023/12/18 02:03:01;;;;;;;21.23;8.38;;;;;;;;;;6388147;22;20473;-74
2023/12/18 02:05:26;;;;;;;19.02;8.13;;;;;;;;;;6387644;22;20021;-74
2023/12/18 02:07:52;;;;;;;20.67;8.85;;;;;;;;;;6388160;22;20058;-75
2023/12/18 02:10:18;;;;;;;20.90;8.48;;;;;;;;;;6360981;22;20012;-74
2023/12/18 02:12:43;;;;;;;20.13;8.20;;;;;;;;;;6388268;22;20014;-74
2023/12/18 02:15:09;;;;;;;19.98;8.48;;;;;;;;;;6386673;22;20066;-74
2023/12/18 02:17:34;;;;;;;19.30;8.20;;;;;;;;;;6360500;22;20044;-74
2023/12/18 02:20:07;;;;;;;22.65;8.98;;;;;;;;;;6388486;22;20006;-74
2023/12/18 02:22:42;;;;;;;22.10;9.52;;;;;;;;;;6389119;22;20356;-74
2023/12/18 02:25:08;;;;;;;26.58;10.93;;;;;;;;;;6360356;22;20006;-74
2023/12/18 02:27:34;;;;;;;23.20;9.95;;;;;;;;;;6388728;22;20020;-74
2023/12/18 02:29:59;;;;;;;23.45;9.90;;;;;;;;;;6388174;22;20018;-74
2023/12/18 02:32:24;;;;;;;24.30;9.23;;;;;;;;;;6388639;22;20033;-74
2023/12/18 02:34:50;;;;;;;20.55;8.23;;;;;;;;;;6360537;22;19998;-74
2023/12/18 02:37:15;;;;;;;23.17;9.13;;;;;;;;;;6388642;22;20002;-74
2023/12/18 02:39:40;;;;;;;19.60;8.93;;;;;;;;;;6360806;22;20512;-74
2023/12/18 02:42:06;;;;;;;22.27;9.80;;;;;;;;;;6361629;22;20036;-74
2023/12/18 02:44:31;;;;;;;26.00;9.43;;;;;;;;;;6363896;22;20039;-74
2023/12/18 02:46:57;;;;;;;25.85;9.48;;;;;;;;;;6392344;22;20073;-74
2023/12/18 02:49:22;;;;;;;22.75;9.73;;;;;;;;;;6394014;22;20051;-74
2023/12/18 02:51:48;;;;;;;18.90;7.30;;;;;;;;;;6399057;22;20009;-74
2023/12/18 02:54:14;;;;;;;24.05;8.75;;;;;;;;;;6381737;22;20097;-75
2023/12/18 02:56:39;;;;;;;23.52;9.60;;;;;;;;;;6411164;22;20020;-74
2023/12/18 02:59:04;;;;;;;23.45;8.90;;;;;;;;;;6368170;22;20014;-74
2023/12/18 03:01:30;;;;;;;21.85;9.38;;;;;;;;;;6365563;22;20377;-74
2023/12/18 03:03:55;;;;;;;20.33;9.77;;;;;;;;;;6392348;22;20029;-74
2023/12/18 03:06:20;;;;;;;22.45;9.73;;;;;;;;;;6391842;22;20508;-74
2023/12/18 03:08:46;;;;;;;25.48;10.50;;;;;;;;;;6363579;22;20010;-74
2023/12/18 03:11:11;;;;;;;25.70;10.40;;;;;;;;;;6363389;22;20002;-74
2023/12/18 03:13:37;;;;;;;28.67;10.27;;;;;;;;;;6364230;22;20460;-75
2023/12/18 03:16:02;;;;;;;31.55;10.73;;;;;;;;;;6391602;22;20010;-74
2023/12/18 03:18:27;;;;;;;23.90;11.30;;;;;;;;;;6389508;22;20483;-74
2023/12/18 03:20:53;;;;;;;19.77;9.02;;;;;;;;;;6391660;22;20548;-74
2023/12/18 03:23:18;;;;;;;17.88;7.40;;;;;;;;;;6391312;22;20090;-75
2023/12/18 03:25:44;;;;;;;26.92;10.43;;;;;;;;;;6391579;22;19990;-74
2023/12/18 03:28:09;;;;;;;26.77;11.15;;;;;;;;;;6392286;22;19998;-74
2023/12/18 03:30:34;;;;;;;26.50;10.27;;;;;;;;;;6391984;22;20353;-74
2023/12/18 03:33:00;;;;;;;26.88;9.90;;;;;;;;;;6363153;22;20021;-74
2023/12/18 03:35:25;;;;;;;28.05;11.25;;;;;;;;;;6363211;22;20096;-75
2023/12/18 03:37:50;;;;;;;27.42;9.98;;;;;;;;;;6391098;22;20036;-74
2023/12/18 03:40:16;;;;;;;28.95;11.48;;;;;;;;;;6392566;22;20005;-74
2023/12/18 03:42:41;;;;;;;26.98;10.50;;;;;;;;;;6390945;22;20466;-74
2023/12/18 03:45:07;;;;;;;18.88;8.05;;;;;;;;;;6362888;22;20522;-74
2023/12/18 03:47:32;;;;;;;27.35;10.90;;;;;;;;;;6391291;22;20009;-74
2023/12/18 03:49:58;;;;;;;34.30;10.90;;;;;;;;;;6363444;22;20006;-74
2023/12/18 03:52:23;;;;;;;29.40;11.20;;;;;;;;;;6363294;22;20013;-75
2023/12/18 03:54:48;;;;;;;26.20;10.32;;;;;;;;;;6389672;22;20142;-74
2023/12/18 03:57:14;;;;;;;33.28;12.23;;;;;;;;;;6389574;22;20013;-74
2023/12/18 03:59:39;;;;;;;32.60;12.13;;;;;;;;;;6390344;22;20021;-74
2023/12/18 04:02:04;;;;;;;31.10;12.85;;;;;;;;;;6390463;22;20006;-74
2023/12/18 04:04:30;;;;;;;29.02;10.40;;;;;;;;;;6390484;22;20583;-75
2023/12/18 04:06:55;;;;;;;21.65;9.68;;;;;;;;;;6390174;22;20025;-74
2023/12/18 04:09:20;;;;;;;28.80;11.40;;;;;;;;;;6391928;22;20016;-75
2023/12/18 04:11:46;;;;;;;28.85;11.00;;;;;;;;;;6368924;22;20032;-74
2023/12/18 04:14:11;;;;;;;35.00;12.18;;;;;;;;;;6404010;22;20018;-75
2023/12/18 04:16:37;;;;;;;26.60;10.30;;;;;;;;;;6368956;22;19998;-74
2023/12/18 04:19:03;;;;;;;30.45;10.68;;;;;;;;;;6389141;22;20010;-74
2023/12/18 04:21:28;;;;;;;35.85;11.82;;;;;;;;;;6389806;22;20002;-74
2023/12/18 04:23:53;;;;;;;29.30;11.55;;;;;;;;;;6361167;22;20002;-74
2023/12/18 04:26:19;;;;;;;26.42;10.70;;;;;;;;;;6361602;22;20420;-74
2023/12/18 04:28:44;;;;;;;37.95;10.48;;;;;;;;;;6389727;22;20186;-74
2023/12/18 04:31:10;;;;;;;39.17;10.38;;;;;;;;;;6361503;22;20039;-74
2023/12/18 04:33:38;;;;;;;39.60;12.27;;;;;;;;;;6360609;22;20018;-74
2023/12/18 04:36:04;;;;;;;37.25;12.45;;;;;;;;;;6389269;22;20013;-74
2023/12/18 04:38:29;;;;;;;33.40;11.23;;;;;;;;;;6389252;22;20014;-74
2023/12/18 04:40:56;;;;;;;33.05;10.65;;;;;;;;;;6361184;22;20002;-74
2023/12/18 04:43:21;;;;;;;30.35;10.40;;;;;;;;;;6389523;22;20001;-74
2023/12/18 04:45:46;;;;;;;28.95;11.05;;;;;;;;;;6361016;22;20097;-74
2023/12/18 04:48:12;;;;;;;36.15;12.13;;;;;;;;;;6389189;22;20771;-74
2023/12/18 04:50:37;;;;;;;35.35;12.13;;;;;;;;;;6389422;22;20014;-74
2023/12/18 04:53:02;;;;;;;33.42;11.73;;;;;;;;;;6389478;22;20056;-74
2023/12/18 04:55:28;;;;;;;32.22;10.38;;;;;;;;;;6361589;22;20036;-74
2023/12/18 04:57:53;;;;;;;37.88;12.32;;;;;;;;;;6388390;22;20506;-74
2023/12/18 05:00:19;;;;;;;33.60;11.27;;;;;;;;;;6389114;22;20013;-74
2023/12/18 05:02:44;;;;;;;36.45;10.27;;;;;;;;;;6360862;22;20016;-74
2023/12/18 05:05:09;;;;;;;33.42;9.63;;;;;;;;;;6388656;22;20005;-74
2023/12/18 05:07:35;;;;;;;30.92;11.05;;;;;;;;;;6389593;22;20058;-75
2023/12/18 05:10:01;;;;;;;37.95;10.93;;;;;;;;;;6389179;22;20009;-74
2023/12/18 05:12:26;;;;;;;37.03;10.73;;;;;;;;;;6360510;22;20488;-74
2023/12/18 05:14:51;;;;;;;32.53;10.85;;;;;;;;;;6360395;22;20170;-74
2023/12/18 05:17:17;;;;;;;26.10;9.32;;;;;;;;;;6360704;22;20021;-74
2023/12/18 05:19:42;;;;;;;25.88;8.52;;;;;;;;;;6361155;22;19993;-74
2023/12/18 05:22:07;;;;;;;26.60;9.23;;;;;;;;;;6361538;22;20497;-74
2023/12/18 05:24:33;;;;;;;32.95;9.48;;;;;;;;;;6360701;22;20006;-73
2023/12/18 05:26:58;;;;;;;32.88;10.43;;;;;;;;;;6361940;22;20082;-72
2023/12/18 05:29:23;;;;;;;31.02;9.18;;;;;;;;;;6392156;22;20041;-74
2023/12/18 05:31:49;;;;;;;26.83;9.05;;;;;;;;;;6401920;22;20029;-74
2023/12/18 05:34:15;;;;;;;15.48;5.45;;;;;;;;;;6382521;22;20009;-74
2023/12/18 05:36:40;;;;;;;19.30;7.72;;;;;;;;;;6371184;22;20147;-74
2023/12/18 05:39:05;;;;;;;28.38;10.07;;;;;;;;;;6392735;22;20468;-75
2023/12/18 05:41:31;;;;;;;32.30;9.65;;;;;;;;;;6362695;22;20394;-74
2023/12/18 05:43:56;;;;;;;31.58;9.18;;;;;;;;;;6389844;22;20043;-74
2023/12/18 05:46:21;;;;;;;27.58;9.15;;;;;;;;;;6390133;22;19989;-74
2023/12/18 05:48:47;;;;;;;23.83;8.80;;;;;;;;;;6389163;22;20021;-75
2023/12/18 05:51:21;;;;;;;30.48;9.95;;;;;;;;;;6389407;22;20018;-74
2023/12/18 05:53:47;;;;;;;24.85;9.25;;;;;;;;;;6388395;22;20416;-75
2023/12/18 05:56:13;;;;;;;23.73;8.88;;;;;;;;;;6388546;22;20010;-74
2023/12/18 05:58:38;;;;;;;27.50;9.57;;;;;;;;;;6361093;22;20080;-74
2023/12/18 06:01:04;;;;;;;24.27;9.18;;;;;;;;;;6387967;22;20006;-74
2023/12/18 06:03:29;;;;;;;29.13;8.68;;;;;;;;;;6388872;22;20465;-74
2023/12/18 06:05:55;;;;;;;26.38;9.35;;;;;;;;;;6387950;22;20049;-74
2023/12/18 06:08:20;;;;;;;23.73;8.25;;;;;;;;;;6388424;22;20016;-74
2023/12/18 06:10:45;;;;;;;25.60;9.45;;;;;;;;;;6359564;22;20004;-74
2023/12/18 06:13:11;;;;;;;29.30;9.45;;;;;;;;;;6389465;22;20388;-74
2023/12/18 06:15:36;;;;;;;18.98;8.25;;;;;;;;;;6359206;22;20014;-74
2023/12/18 06:18:01;;;;;;;23.92;8.50;;;;;;;;;;6357715;22;20454;-74
2023/12/18 06:20:27;;;;;;;22.65;9.02;;;;;;;;;;6360255;22;20357;-74
2023/12/18 06:22:52;;;;;;;20.20;8.50;;;;;;;;;;6387514;22;19998;-74
2023/12/18 06:25:17;;;;;;;25.50;8.20;;;;;;;;;;6388929;22;19993;-74
2023/12/18 06:27:44;;;;;;;22.63;8.88;;;;;;;;;;6388562;22;20021;-74
2023/12/18 06:30:10;;;;;;;23.98;8.65;;;;;;;;;;6360191;22;20615;-74
2023/12/18 06:32:35;;;;;;;19.55;6.88;;;;;;;;;;6388982;22;20691;-74
2023/12/18 06:35:00;;;;;;;14.55;7.00;;;;;;;;;;6388244;22;20017;-74
2023/12/18 06:37:26;;;;;;;21.83;7.65;;;;;;;;;;6388320;22;20001;-74
2023/12/18 06:39:51;;;;;;;20.55;8.13;;;;;;;;;;6387154;22;20002;-74
2023/12/18 06:42:16;;;;;;;22.48;6.20;;;;;;;;;;6388231;22;20009;-74
2023/12/18 06:44:42;;;;;;;19.55;7.63;;;;;;;;;;6389327;22;20017;-74
2023/12/18 06:47:07;;;;;;;22.17;8.52;;;;;;;;;;6361385;22;20002;-74
2023/12/18 06:49:33;;;;;;;30.77;8.50;;;;;;;;;;6394713;22;20458;-74
2023/12/18 06:51:58;;;;;;;20.15;7.82;;;;;;;;;;6374079;22;20014;-74
2023/12/18 06:54:26;;;;;;;23.67;8.35;;;;;;;;;;6399902;22;20014;-74
2023/12/18 06:56:51;;;;;;;23.60;7.60;;;;;;;;;;6388788;22;20609;-74
2023/12/18 06:59:16;;;;;;;24.67;8.75;;;;;;;;;;6388186;22;20018;-74
2023/12/18 07:01:42;;;;;;;22.67;7.90;;;;;;;;;;6388701;22;20318;-74
2023/12/18 07:04:07;;;;;;;18.08;7.25;;;;;;;;;;6360387;22;20001;-74
2023/12/18 07:06:33;;;;;;;25.50;8.60;;;;;;;;;;6388290;22;20167;-74
2023/12/18 07:08:59;;;;;;;13.18;5.32;;;;;;;;;;6359624;22;20028;-75
2023/12/18 07:11:24;;;;;;;18.30;7.10;;;;;;;;;;6358743;22;20041;-74
2023/12/18 07:13:51;;;;;;;24.20;8.23;;;;;;;;;;6388119;22;20037;-74
2023/12/18 07:16:21;;;;;;;22.77;8.73;;;;;;;;;;6360745;22;20018;-74
2023/12/18 07:18:46;;;;;;;27.33;8.60;;;;;;;;;;6387420;22;20009;-74
2023/12/18 07:21:12;;;;;;;20.67;6.20;;;;;;;;;;6359979;22;20075;-74
2023/12/18 07:23:37;;;;;;;13.57;6.15;;;;;;;;;;6360134;22;20010;-74
2023/12/18 07:26:03;;;;;;;20.55;7.22;;;;;;;;;;6388206;22;20069;-74
2023/12/18 07:28:28;;;;;;;24.30;8.48;;;;;;;;;;6390595;22;19993;-74
2023/12/18 07:30:53;;;;;;;24.10;8.45;;;;;;;;;;6389439;22;20093;-74
2023/12/18 07:33:19;;;;;;;19.77;9.05;;;;;;;;;;6351331;22;20022;-74
2023/12/18 07:35:44;;;;;;;24.33;8.50;;;;;;;;;;6384865;22;20022;-74
2023/12/18 07:38:09;;;;;;;13.80;7.28;;;;;;;;;;6388765;22;20016;-74
2023/12/18 07:40:35;;;;;;;24.98;8.82;;;;;;;;;;6353575;22;20029;-76
2023/12/18 07:43:00;;;;;;;17.38;8.98;;;;;;;;;;6388995;22;20038;-77
2023/12/18 07:45:26;;;;;;;17.17;8.20;;;;;;;;;;6389257;22;20024;-78
2023/12/18 07:47:51;;;;;;;22.65;9.35;;;;;;;;;;6360035;22;20010;-78
2023/12/18 07:50:17;;;;;;;21.15;9.15;;;;;;;;;;6355755;22;20042;-77
2023/12/18 07:52:43;;;;;;;15.45;7.22;;;;;;;;;;6362119;22;19994;-77
2023/12/18 07:55:09;;;;;;;17.35;7.80;;;;;;;;;;6359922;22;20013;-75
2023/12/18 07:57:34;;;;;;;24.10;9.48;;;;;;;;;;6390256;22;20005;-77
2023/12/18 08:00:00;;;;;;;22.35;8.65;;;;;;;;;;6389181;22;20056;-76
2023/12/18 08:02:25;;;;;;;15.20;5.93;;;;;;;;;;6361349;22;20117;-77
2023/12/18 08:04:51;;;;;;;17.75;7.82;;;;;;;;;;6390294;22;20349;-80
2023/12/18 08:07:17;;;;;;;20.95;8.80;;;;;;;;;;6364103;22;20018;-80
2023/12/18 08:09:44;;;;;;;22.25;9.23;;;;;;;;;;6372076;22;20322;-78
2023/12/18 08:12:10;;;;;;;15.02;6.60;;;;;;;;;;6380916;22;20029;-79
2023/12/18 08:14:36;;;;;;;28.90;9.82;;;;;;;;;;6372849;22;20018;-80
2023/12/18 08:17:01;;;;;;;13.60;6.25;;;;;;;;;;6364290;22;20658;-77
2023/12/18 08:19:27;;;;;;;18.13;8.27;;;;;;;;;;6391250;22;20029;-78
2023/12/18 08:21:52;;;;;;;13.45;5.15;;;;;;;;;;6389931;22;20088;-76
2023/12/18 08:24:17;;;;;;;16.23;7.85;;;;;;;;;;6389326;22;20013;-76
2023/12/18 08:26:47;;;;;;;23.90;8.68;;;;;;;;;;6389556;22;20456;-76
2023/12/18 08:29:13;;;;;;;20.98;8.55;;;;;;;;;;6388066;22;20086;-77
2023/12/18 08:31:38;;;;;;;20.30;7.22;;;;;;;;;;6361741;22;20005;-77
2023/12/18 08:34:05;;;;;;;12.82;5.53;;;;;;;;;;6389581;22;20010;-77
2023/12/18 08:36:30;;;;;;;18.67;7.15;;;;;;;;;;6359808;22;20018;-77
2023/12/18 08:38:56;;;;;;;22.73;8.25;;;;;;;;;;6387985;22;20022;-77
2023/12/18 08:41:21;;;;;;;16.38;6.88;;;;;;;;;;6360288;22;20006;-77
2023/12/18 08:43:46;;;;;;;19.00;8.70;;;;;;;;;;6389170;22;20005;-77
2023/12/18 08:46:12;;;;;;;27.05;9.52;;;;;;;;;;6390450;22;19998;-76
2023/12/18 08:48:37;;;;;;;19.05;8.75;;;;;;;;;;6389294;22;20504;-77
2023/12/18 08:51:03;;;;;;;24.02;8.95;;;;;;;;;;6360060;22;20009;-77
2023/12/18 08:53:28;;;;;;;19.95;8.30;;;;;;;;;;6388270;22;20010;-76
2023/12/18 08:55:54;;;;;;;17.25;7.20;;;;;;;;;;6360818;22;20048;-77
2023/12/18 08:58:21;;;;;;;25.92;9.00;;;;;;;;;;6388425;22;19994;-76
2023/12/18 09:00:46;;;;;;;16.90;5.85;;;;;;;;;;6360186;22;20164;-79
2023/12/18 09:03:11;;;;;;;20.70;7.57;;;;;;;;;;6356333;22;20491;-78
2023/12/18 09:05:37;;;;;;;22.27;8.25;;;;;;;;;;6359742;22;20026;-77
2023/12/18 09:08:05;;;;;;;13.30;5.30;;;;;;;;;;6386508;22;20074;-77
2023/12/18 09:10:32;;;;;;;19.92;7.55;;;;;;;;;;6359839;22;20034;-77
2023/12/18 09:12:58;;;;;;;18.75;7.85;;;;;;;;;;6358145;22;20006;-79
2023/12/18 09:15:23;;;;;;;16.27;6.22;;;;;;;;;;6387818;22;20070;-78
2023/12/18 09:17:49;;;;;;;23.48;8.25;;;;;;;;;;6358798;22;20024;-79
2023/12/18 09:20:14;;;;;;;19.90;6.45;;;;;;;;;;6386732;22;20014;-78
2023/12/18 09:22:39;;;;;;;17.77;7.05;;;;;;;;;;6387680;22;20097;-76
2023/12/18 09:25:05;;;;;;;21.58;8.18;;;;;;;;;;6389832;22;20101;-77
2023/12/18 09:27:31;;;;;;;17.25;5.35;;;;;;;;;;6365483;22;20047;-79
2023/12/18 09:29:57;;;;;;;19.83;8.02;;;;;;;;;;6373529;22;20006;-77
2023/12/18 09:32:23;;;;;;;18.95;7.80;;;;;;;;;;6362357;22;20877;-76
2023/12/18 09:34:48;;;;;;;21.80;7.97;;;;;;;;;;6387451;22;20453;-78
2023/12/18 09:37:14;;;;;;;14.60;6.63;;;;;;;;;;6360950;22;20340;-77
2023/12/18 09:39:42;;;;;;;19.27;7.30;;;;;;;;;;6388649;22;20568;-76
2023/12/18 09:42:11;;;;;;;19.20;7.75;;;;;;;;;;6357654;22;20089;-77
2023/12/18 09:44:37;;;;;;;19.65;7.72;;;;;;;;;;6388695;22;20068;-77
2023/12/18 09:47:03;;;;;;;28.23;7.82;;;;;;;;;;6358980;22;20006;-78
2023/12/18 09:49:29;;;;;;;19.73;7.05;;;;;;;;;;6385189;22;20528;-76
2023/12/18 09:52:03;;;;;;;10.60;5.43;;;;;;;;;;6357389;22;20010;-76
2023/12/18 09:54:29;;;;;;;20.92;7.93;;;;;;;;;;6386866;22;20075;-77
2023/12/18 09:56:56;;;;;;;18.02;7.40;;;;;;;;;;6360322;22;20028;-79
2023/12/18 09:59:22;;;;;;;19.27;7.18;;;;;;;;;;6357475;22;20014;-78
2023/12/18 10:01:48;;;;;;;19.25;8.00;;;;;;;;;;6387088;22;19998;-77
2023/12/18 10:04:13;;;;;;;25.67;7.97;;;;;;;;;;6387705;22;19994;-80
2023/12/18 10:06:39;;;;;;;13.88;7.30;;;;;;;;;;6328396;22;20092;-77
2023/12/18 10:09:12;;;;;;;14.32;6.68;;;;;;;;;;6321885;22;20006;-76
2023/12/18 10:11:38;;;;;;;14.20;6.97;;;;;;;;;;6322325;22;20011;-77
2023/12/18 10:14:03;;;;;;;10.93;5.25;;;;;;;;;;6323760;22;20014;-77
2023/12/18 10:16:30;;;;;;;14.98;6.25;;;;;;;;;;6323870;22;20010;-77
2023/12/18 10:18:56;;;;;;;15.25;6.50;;;;;;;;;;6325288;22;20011;-78
2023/12/18 10:21:25;;;;;;;15.88;6.22;;;;;;;;;;6322321;22;20488;-77
2023/12/18 10:23:54;;;;;;;12.02;5.47;;;;;;;;;;6324845;22;20030;-78
2023/12/18 10:26:20;;;;;;;18.30;6.50;;;;;;;;;;6322268;22;20058;-78
2023/12/18 10:28:45;;;;;;;12.10;6.00;;;;;;;;;;6322970;22;20091;-77
2023/12/18 10:31:11;;;;;;;14.93;6.25;;;;;;;;;;6326674;22;19999;-74
2023/12/18 10:33:37;;;;;;;21.40;6.25;;;;;;;;;;6322192;22;20457;-75
2023/12/18 10:36:06;;;;;;;16.77;7.05;;;;;;;;;;6325332;22;20505;-75
2023/12/18 10:38:34;;;;;;;15.68;6.95;;;;;;;;;;6325513;22;20019;-74
2023/12/18 10:41:02;;;;;;;15.85;6.15;;;;;;;;;;6325574;22;20032;-74
2023/12/18 10:43:30;;;;;;;16.98;6.72;;;;;;;;;;6327471;22;20495;-73
2023/12/18 10:45:57;;;;;;;14.82;6.68;;;;;;;;;;6330772;22;20497;-74
2023/12/18 10:48:24;;;;;;;15.30;6.72;;;;;;;;;;6339237;22;20014;-74
2023/12/18 10:50:52;;;;;;;18.27;6.68;;;;;;;;;;6345612;22;20011;-74
2023/12/18 10:53:17;;;;;;;13.90;6.32;;;;;;;;;;6328551;22;20015;-74
2023/12/18 10:55:44;;;;;;;20.92;7.38;;;;;;;;;;6322733;22;20010;-74
2023/12/18 10:58:10;;;;;;;17.10;7.47;;;;;;;;;;6325384;22;19998;-74
2023/12/18 11:00:38;;;;;;;19.20;7.00;;;;;;;;;;6323643;22;20047;-74
2023/12/18 11:03:05;;;;;;;15.63;5.97;;;;;;;;;;6324347;22;20030;-76
2023/12/18 11:05:31;;;;;;;15.23;6.95;;;;;;;;;;6340172;22;20109;-75
2023/12/18 11:07:57;;;;;;;16.25;6.80;;;;;;;;;;6390296;22;19998;-75
2023/12/18 11:10:24;;;;;;;15.68;6.38;;;;;;;;;;6360850;22;20033;-74
2023/12/18 11:12:55;;;;;;;16.58;6.40;;;;;;;;;;6388154;22;20066;-75
2023/12/18 11:15:34;;;;;;;17.45;6.47;;;;;;;;;;6361720;22;20042;-75
2023/12/18 11:18:22;;;;;;;16.42;6.88;;;;;;;;;;6388171;22;20052;-75
2023/12/18 11:20:49;;;;;;;19.33;6.68;;;;;;;;;;6389240;22;20041;-75
2023/12/18 11:23:16;;;;;;;20.58;7.13;;;;;;;;;;6361840;22;20010;-75
2023/12/18 11:25:45;;;;;;;16.23;6.57;;;;;;;;;;6361375;22;20021;-74
2023/12/18 11:28:11;;;;;;;15.63;5.80;;;;;;;;;;6389243;22;20001;-74
2023/12/18 11:30:42;;;;;;;12.93;6.18;;;;;;;;;;6390275;22;20010;-74
2023/12/18 11:33:13;;;;;;;22.15;7.75;;;;;;;;;;6359457;22;20006;-74
2023/12/18 11:35:45;;;;;;;14.95;6.05;;;;;;;;;;6360741;22;20017;-74
2023/12/18 11:38:15;;;;;;;14.48;5.75;;;;;;;;;;6388805;22;20018;-74
2023/12/18 11:40:44;;;;;;;17.85;6.55;;;;;;;;;;6360626;22;20084;-74
2023/12/18 11:43:32;;;;;;;17.05;5.28;;;;;;;;;;6360505;22;20016;-74
2023/12/18 11:46:01;;;;;;;16.20;6.80;;;;;;;;;;6334771;22;20002;-74
2023/12/18 11:48:27;;;;;;;14.98;6.25;;;;;;;;;;6361472;22;20193;-74
2023/12/18 11:50:53;;;;;;;11.30;5.68;;;;;;;;;;6360526;22;20526;-74
2023/12/18 11:53:31;;;;;;;18.60;6.57;;;;;;;;;;6388991;22;20017;-76
2023/12/18 11:55:56;;;;;;;15.18;6.70;;;;;;;;;;6361196;22;20009;-75
2023/12/18 11:58:28;;;;;;;17.83;6.60;;;;;;;;;;6361347;22;19994;-74
2023/12/18 12:00:55;;;;;;;15.32;6.75;;;;;;;;;;6362204;22;20013;-75
2023/12/18 12:03:22;;;;;;;19.58;6.80;;;;;;;;;;6363423;22;20521;-75
2023/12/18 12:05:48;;;;;;;13.27;5.72;;;;;;;;;;6398404;22;20679;-75
2023/12/18 12:08:15;;;;;;;13.60;5.95;;;;;;;;;;6404517;22;20006;-75
2023/12/18 12:10:51;;;;;;;18.48;7.43;;;;;;;;;;6366838;22;20096;-75
2023/12/18 12:13:23;;;;;;;14.65;5.80;;;;;;;;;;6360565;22;20747;-75
2023/12/18 12:16:00;;;;;;;16.15;6.85;;;;;;;;;;6360855;22;20082;-75
2023/12/18 12:18:28;;;;;;;16.80;6.53;;;;;;;;;;6388626;22;20097;-74
2023/12/18 12:20:54;;;;;;;16.08;6.05;;;;;;;;;;6388714;22;20028;-75
2023/12/18 12:23:20;;;;;;;16.73;7.55;;;;;;;;;;6389911;22;20955;-74
2023/12/18 12:25:48;;;;;;;16.13;6.80;;;;;;;;;;6389567;22;20136;-74
2023/12/18 12:28:17;;;;;;;16.73;6.60;;;;;;;;;;6361284;22;20025;-75
2023/12/18 12:30:43;;;;;;;19.25;7.38;;;;;;;;;;6361548;22;20006;-74
2023/12/18 12:33:10;;;;;;;26.25;7.72;;;;;;;;;;6388895;22;20013;-74
2023/12/18 12:35:35;;;;;;;18.40;7.40;;;;;;;;;;6388493;22;20028;-74
2023/12/18 12:38:02;;;;;;;17.85;8.10;;;;;;;;;;6360877;22;20010;-74
2023/12/18 12:40:42;;;;;;;18.05;7.80;;;;;;;;;;6389800;22;20026;-75
2023/12/18 12:43:10;;;;;;;19.38;7.35;;;;;;;;;;6389674;22;20171;-74
2023/12/18 12:45:36;;;;;;;23.02;8.38;;;;;;;;;;6388432;22;20305;-74
2023/12/18 12:48:06;;;;;;;16.45;6.93;;;;;;;;;;6388345;22;20530;-74
2023/12/18 12:50:35;;;;;;;16.75;7.03;;;;;;;;;;6389633;22;20085;-74
2023/12/18 12:53:00;;;;;;;19.17;8.13;;;;;;;;;;6389239;22;20014;-75
2023/12/18 12:55:26;;;;;;;18.52;6.82;;;;;;;;;;6386995;22;20126;-75
2023/12/18 12:57:52;;;;;;;23.52;7.22;;;;;;;;;;6358122;22;20121;-75
2023/12/18 13:00:19;;;;;;;13.90;6.70;;;;;;;;;;6385363;22;20062;-78
2023/12/18 13:02:44;;;;;;;22.00;7.18;;;;;;;;;;6387549;22;20010;-78
2023/12/18 13:05:10;;;;;;;18.75;6.60;;;;;;;;;;6386982;22;20005;-78
2023/12/18 13:07:35;;;;;;;17.25;6.60;;;;;;;;;;6389897;22;20002;-78
2023/12/18 13:10:03;;;;;;;22.05;7.78;;;;;;;;;;6360908;22;20014;-78
2023/12/18 13:12:29;;;;;;;13.60;5.07;;;;;;;;;;6360832;22;20368;-78
2023/12/18 13:14:56;;;;;;;14.23;5.78;;;;;;;;;;6359456;22;20024;-78
2023/12/18 13:17:21;;;;;;;15.10;6.07;;;;;;;;;;6359407;22;20018;-78
2023/12/18 13:19:47;;;;;;;17.05;6.22;;;;;;;;;;6388729;22;20009;-78
2023/12/18 13:22:12;;;;;;;15.45;6.43;;;;;;;;;;6363694;22;20397;-78
2023/12/18 13:24:37;;;;;;;21.02;7.28;;;;;;;;;;6371537;22;20040;-78
2023/12/18 13:27:03;;;;;;;11.50;5.20;;;;;;;;;;6380741;22;20021;-78
2023/12/18 13:29:32;;;;;;;17.85;6.35;;;;;;;;;;6372600;22;20009;-77
2023/12/18 13:32:02;;;;;;;15.27;5.68;;;;;;;;;;6392019;22;20349;-78
2023/12/18 13:34:30;;;;;;;13.73;6.00;;;;;;;;;;6359561;22;20021;-78
2023/12/18 13:36:56;;;;;;;16.48;6.78;;;;;;;;;;6389441;22;20097;-78
2023/12/18 13:39:22;;;;;;;17.95;5.35;;;;;;;;;;6360630;22;20034;-78
2023/12/18 13:41:47;;;;;;;15.63;6.28;;;;;;;;;;6359140;22;20025;-78
2023/12/18 13:44:13;;;;;;;6.90;3.75;;;;;;;;;;6359203;22;20013;-78
2023/12/18 13:46:38;;;;;;;10.63;4.50;;;;;;;;;;6388726;22;19997;-78
2023/12/18 13:49:04;;;;;;;16.40;6.47;;;;;;;;;;6360543;22;20029;-78
2023/12/18 13:51:32;;;;;;;16.58;6.68;;;;;;;;;;6360419;22;20037;-78
2023/12/18 13:53:57;;;;;;;8.38;3.97;;;;;;;;;;6360720;22;20044;-78
2023/12/18 13:56:23;;;;;;;13.15;6.25;;;;;;;;;;6388383;22;20009;-78
2023/12/18 13:58:51;;;;;;;12.27;5.32;;;;;;;;;;6360752;22;20009;-77
2023/12/18 14:01:16;;;;;;;13.65;4.72;;;;;;;;;;6389991;22;20425;-79
2023/12/18 14:03:42;;;;;;;7.55;3.90;;;;;;;;;;6388933;22;20094;-79
2023/12/18 14:06:07;;;;;;;12.80;5.43;;;;;;;;;;6387626;22;20022;-78
2023/12/18 14:08:32;;;;;;;12.57;5.00;;;;;;;;;;6359937;22;20009;-78
2023/12/18 14:10:58;;;;;;;14.35;4.78;;;;;;;;;;6358950;22;19998;-78
2023/12/18 14:13:23;;;;;;;18.35;5.60;;;;;;;;;;6388454;22;19990;-78
2023/12/18 14:15:49;;;;;;;18.98;6.85;;;;;;;;;;6388556;22;20534;-78
2023/12/18 14:18:16;;;;;;;6.13;3.58;;;;;;;;;;6388572;22;20014;-78
2023/12/18 14:20:41;;;;;;;10.05;5.00;;;;;;;;;;6388454;22;20013;-78
2023/12/18 14:23:07;;;;;;;15.40;5.60;;;;;;;;;;6359128;22;20016;-78